sensor_id;sensor_type;location;lat;lon;timestamp;P1;durP1;ratioP1;P2;durP2;ratioP2
59555;SDS011;45374;52.746;6.304;2022-12-31T00:01:24;23.50;;;8.73;;
59555;SDS011;45374;52.746;6.304;2022-12-31T00:03:50;24.67;;;9.35;;
59555;SDS011;45374;52.746;6.304;2022-12-31T00:06:19;24.55;;;8.65;;
59555;SDS011;45374;52.746;6.304;2022-12-31T00:08:48;24.50;;;9.30;;
59555;SDS011;45374;52.746;6.304;2022-12-31T00:11:15;23.55;;;9.10;;
59555;SDS011;45374;52.746;6.304;2022-12-31T00:13:41;26.88;;;9.20;;
59555;SDS011;45374;52.746;6.304;2022-12-31T00:16:11;22.85;;;8.75;;
59555;SDS011;45374;52.746;6.304;2022-12-31T00:18:42;27.20;;;8.75;;
59555;SDS011;45374;52.746;6.304;2022-12-31T00:21:11;24.98;;;8.90;;
59555;SDS011;45374;52.746;6.304;2022-12-31T00:23:38;21.58;;;8.88;;
59555;SDS011;45374;52.746;6.304;2022-12-31T00:26:04;28.33;;;10.07;;
59555;SDS011;45374;52.746;6.304;2022-12-31T00:28:32;25.13;;;8.68;;
59555;SDS011;45374;52.746;6.304;2022-12-31T00:31:06;22.30;;;7.93;;
59555;SDS011;45374;52.746;6.304;2022-12-31T00:33:34;17.10;;;8.35;;
59555;SDS011;45374;52.746;6.304;2022-12-31T00:36:05;23.95;;;9.25;;
59555;SDS011;45374;52.746;6.304;2022-12-31T00:38:36;20.75;;;8.52;;
59555;SDS011;45374;52.746;6.304;2022-12-31T00:41:03;30.15;;;8.80;;
59555;SDS011;45374;52.746;6.304;2022-12-31T00:43:29;20.15;;;8.52;;
59555;SDS011;45374;52.746;6.304;2022-12-31T00:45:55;18.95;;;7.88;;
59555;SDS011;45374;52.746;6.304;2022-12-31T00:48:20;23.65;;;7.30;;
59555;SDS011;45374;52.746;6.304;2022-12-31T00:50:46;19.63;;;7.18;;
59555;SDS011;45374;52.746;6.304;2022-12-31T00:53:12;21.45;;;7.15;;
59555;SDS011;45374;52.746;6.304;2022-12-31T00:55:37;20.08;;;7.30;;
59555;SDS011;45374;52.746;6.304;2022-12-31T00:58:03;17.77;;;7.45;;
59555;SDS011;45374;52.746;6.304;2022-12-31T01:00:28;17.35;;;7.13;;
59555;SDS011;45374;52.746;6.304;2022-12-31T01:02:54;17.50;;;7.03;;
59555;SDS011;45374;52.746;6.304;2022-12-31T01:05:19;19.67;;;7.00;;
59555;SDS011;45374;52.746;6.304;2022-12-31T01:07:45;16.35;;;7.13;;
59555;SDS011;45374;52.746;6.304;2022-12-31T01:10:11;15.82;;;6.90;;
59555;SDS011;45374;52.746;6.304;2022-12-31T01:12:36;20.92;;;6.75;;
59555;SDS011;45374;52.746;6.304;2022-12-31T01:15:02;15.52;;;6.15;;
59555;SDS011;45374;52.746;6.304;2022-12-31T01:17:28;19.25;;;6.65;;
59555;SDS011;45374;52.746;6.304;2022-12-31T01:19:53;18.88;;;6.68;;
59555;SDS011;45374;52.746;6.304;2022-12-31T01:22:19;14.23;;;6.30;;
59555;SDS011;45374;52.746;6.304;2022-12-31T01:24:45;15.57;;;6.50;;
59555;SDS011;45374;52.746;6.304;2022-12-31T01:27:10;17.30;;;6.38;;
59555;SDS011;45374;52.746;6.304;2022-12-31T01:29:36;16.08;;;6.43;;
59555;SDS011;45374;52.746;6.304;2022-12-31T01:32:01;17.83;;;6.28;;
59555;SDS011;45374;52.746;6.304;2022-12-31T01:34:27;16.42;;;6.00;;
59555;SDS011;45374;52.746;6.304;2022-12-31T01:36:52;12.95;;;5.85;;
59555;SDS011;45374;52.746;6.304;2022-12-31T01:39:18;11.40;;;5.47;;
59555;SDS011;45374;52.746;6.304;2022-12-31T01:41:44;12.32;;;5.47;;
59555;SDS011;45374;52.746;6.304;2022-12-31T01:52:01;16.75;;;5.45;;
59555;SDS011;45374;52.746;6.304;2022-12-31T01:54:30;16.35;;;5.45;;
59555;SDS011;45374;52.746;6.304;2022-12-31T01:57:01;10.95;;;4.47;;
59555;SDS011;45374;52.746;6.304;2022-12-31T01:59:29;11.57;;;4.82;;
59555;SDS011;45374;52.746;6.304;2022-12-31T02:01:55;13.10;;;4.50;;
59555;SDS011;45374;52.746;6.304;2022-12-31T02:04:23;10.73;;;4.30;;
59555;SDS011;45374;52.746;6.304;2022-12-31T02:07:00;9.88;;;3.47;;
59555;SDS011;45374;52.746;6.304;2022-12-31T02:09:28;9.10;;;3.40;;
59555;SDS011;45374;52.746;6.304;2022-12-31T02:11:55;9.40;;;2.83;;
59555;SDS011;45374;52.746;6.304;2022-12-31T02:14:21;9.65;;;3.10;;
59555;SDS011;45374;52.746;6.304;2022-12-31T02:27:50;6.55;;;1.80;;
59555;SDS011;45374;52.746;6.304;2022-12-31T02:30:36;5.45;;;1.38;;
59555;SDS011;45374;52.746;6.304;2022-12-31T02:33:09;6.78;;;1.90;;
59555;SDS011;45374;52.746;6.304;2022-12-31T02:38:10;4.85;;;1.27;;
59555;SDS011;45374;52.746;6.304;2022-12-31T02:40:43;4.85;;;1.20;;
59555;SDS011;45374;52.746;6.304;2022-12-31T02:43:09;6.70;;;1.63;;
59555;SDS011;45374;52.746;6.304;2022-12-31T02:45:36;6.82;;;2.05;;
59555;SDS011;45374;52.746;6.304;2022-12-31T02:48:17;5.05;;;1.85;;
59555;SDS011;45374;52.746;6.304;2022-12-31T02:51:50;4.78;;;1.75;;
59555;SDS011;45374;52.746;6.304;2022-12-31T02:58:57;8.07;;;2.42;;
59555;SDS011;45374;52.746;6.304;2022-12-31T03:01:54;13.13;;;2.40;;
59555;SDS011;45374;52.746;6.304;2022-12-31T03:04:39;7.80;;;2.60;;
59555;SDS011;45374;52.746;6.304;2022-12-31T03:07:20;13.52;;;3.13;;
59555;SDS011;45374;52.746;6.304;2022-12-31T03:09:53;9.10;;;3.00;;
59555;SDS011;45374;52.746;6.304;2022-12-31T03:12:20;10.35;;;3.20;;
59555;SDS011;45374;52.746;6.304;2022-12-31T03:15:07;12.00;;;3.95;;
59555;SDS011;45374;52.746;6.304;2022-12-31T03:18:26;8.73;;;3.78;;
59555;SDS011;45374;52.746;6.304;2022-12-31T03:20:47;13.50;;;4.13;;
59555;SDS011;45374;52.746;6.304;2022-12-31T03:23:37;12.68;;;4.35;;
59555;SDS011;45374;52.746;6.304;2022-12-31T03:26:05;10.50;;;4.03;;
59555;SDS011;45374;52.746;6.304;2022-12-31T03:28:35;11.45;;;4.43;;
59555;SDS011;45374;52.746;6.304;2022-12-31T03:31:02;10.98;;;4.40;;
59555;SDS011;45374;52.746;6.304;2022-12-31T03:33:29;16.10;;;5.13;;
59555;SDS011;45374;52.746;6.304;2022-12-31T03:35:56;13.77;;;5.05;;
59555;SDS011;45374;52.746;6.304;2022-12-31T03:38:22;11.30;;;4.72;;
59555;SDS011;45374;52.746;6.304;2022-12-31T03:40:48;14.90;;;5.53;;
59555;SDS011;45374;52.746;6.304;2022-12-31T03:43:16;16.60;;;6.18;;
59555;SDS011;45374;52.746;6.304;2022-12-31T03:45:43;14.77;;;5.45;;
59555;SDS011;45374;52.746;6.304;2022-12-31T03:48:11;14.05;;;5.25;;
59555;SDS011;45374;52.746;6.304;2022-12-31T03:50:37;15.20;;;5.47;;
59555;SDS011;45374;52.746;6.304;2022-12-31T03:53:03;14.57;;;5.82;;
59555;SDS011;45374;52.746;6.304;2022-12-31T03:55:29;13.15;;;5.55;;
59555;SDS011;45374;52.746;6.304;2022-12-31T03:57:55;13.50;;;4.82;;
59555;SDS011;45374;52.746;6.304;2022-12-31T04:00:20;11.68;;;4.82;;
59555;SDS011;45374;52.746;6.304;2022-12-31T04:02:46;12.70;;;4.63;;
59555;SDS011;45374;52.746;6.304;2022-12-31T04:05:13;16.40;;;4.88;;
59555;SDS011;45374;52.746;6.304;2022-12-31T04:07:39;13.00;;;4.47;;
59555;SDS011;45374;52.746;6.304;2022-12-31T04:10:06;11.45;;;4.57;;
59555;SDS011;45374;52.746;6.304;2022-12-31T04:12:33;11.27;;;3.90;;
59555;SDS011;45374;52.746;6.304;2022-12-31T04:14:58;18.10;;;4.75;;
59555;SDS011;45374;52.746;6.304;2022-12-31T04:17:24;13.52;;;4.20;;
59555;SDS011;45374;52.746;6.304;2022-12-31T04:19:50;10.32;;;4.20;;
59555;SDS011;45374;52.746;6.304;2022-12-31T04:22:16;11.00;;;3.70;;
59555;SDS011;45374;52.746;6.304;2022-12-31T04:24:42;11.63;;;3.17;;
59555;SDS011;45374;52.746;6.304;2022-12-31T04:27:09;11.63;;;4.10;;
59555;SDS011;45374;52.746;6.304;2022-12-31T04:29:38;10.75;;;3.78;;
59555;SDS011;45374;52.746;6.304;2022-12-31T04:32:04;11.15;;;3.50;;
59555;SDS011;45374;52.746;6.304;2022-12-31T04:34:30;16.15;;;3.72;;
59555;SDS011;45374;52.746;6.304;2022-12-31T04:36:56;16.00;;;4.20;;
59555;SDS011;45374;52.746;6.304;2022-12-31T04:39:22;13.73;;;4.20;;
59555;SDS011;45374;52.746;6.304;2022-12-31T04:41:48;14.70;;;4.40;;
59555;SDS011;45374;52.746;6.304;2022-12-31T04:44:14;12.00;;;4.40;;
59555;SDS011;45374;52.746;6.304;2022-12-31T04:46:39;11.57;;;4.22;;
59555;SDS011;45374;52.746;6.304;2022-12-31T04:49:05;12.55;;;4.60;;
59555;SDS011;45374;52.746;6.304;2022-12-31T04:51:31;15.80;;;4.72;;
59555;SDS011;45374;52.746;6.304;2022-12-31T04:53:57;14.52;;;4.07;;
59555;SDS011;45374;52.746;6.304;2022-12-31T04:56:23;12.23;;;4.38;;
59555;SDS011;45374;52.746;6.304;2022-12-31T04:58:49;14.57;;;4.68;;
59555;SDS011;45374;52.746;6.304;2022-12-31T05:01:15;15.55;;;4.75;;
59555;SDS011;45374;52.746;6.304;2022-12-31T05:03:41;9.02;;;3.75;;
59555;SDS011;45374;52.746;6.304;2022-12-31T05:06:09;13.95;;;4.10;;
59555;SDS011;45374;52.746;6.304;2022-12-31T05:08:38;11.32;;;3.90;;
59555;SDS011;45374;52.746;6.304;2022-12-31T05:11:04;12.52;;;4.35;;
59555;SDS011;45374;52.746;6.304;2022-12-31T05:13:29;13.35;;;4.05;;
59555;SDS011;45374;52.746;6.304;2022-12-31T05:15:55;12.88;;;4.05;;
59555;SDS011;45374;52.746;6.304;2022-12-31T05:18:21;14.98;;;4.20;;
59555;SDS011;45374;52.746;6.304;2022-12-31T05:20:47;9.57;;;4.40;;
59555;SDS011;45374;52.746;6.304;2022-12-31T05:23:13;12.27;;;4.32;;
59555;SDS011;45374;52.746;6.304;2022-12-31T05:25:40;13.75;;;4.63;;
59555;SDS011;45374;52.746;6.304;2022-12-31T05:28:07;10.43;;;4.63;;
59555;SDS011;45374;52.746;6.304;2022-12-31T05:30:33;12.20;;;4.90;;
59555;SDS011;45374;52.746;6.304;2022-12-31T05:32:58;16.70;;;5.13;;
59555;SDS011;45374;52.746;6.304;2022-12-31T05:35:24;12.50;;;4.95;;
59555;SDS011;45374;52.746;6.304;2022-12-31T05:37:50;11.90;;;5.50;;
59555;SDS011;45374;52.746;6.304;2022-12-31T05:40:16;11.82;;;5.90;;
59555;SDS011;45374;52.746;6.304;2022-12-31T05:42:41;12.55;;;5.20;;
59555;SDS011;45374;52.746;6.304;2022-12-31T05:45:07;11.27;;;5.30;;
59555;SDS011;45374;52.746;6.304;2022-12-31T05:47:33;14.02;;;5.00;;
59555;SDS011;45374;52.746;6.304;2022-12-31T05:49:58;10.85;;;4.55;;
59555;SDS011;45374;52.746;6.304;2022-12-31T05:52:24;12.98;;;4.70;;
59555;SDS011;45374;52.746;6.304;2022-12-31T05:54:49;10.52;;;4.60;;
59555;SDS011;45374;52.746;6.304;2022-12-31T05:57:15;13.50;;;4.82;;
59555;SDS011;45374;52.746;6.304;2022-12-31T05:59:40;14.20;;;4.80;;
59555;SDS011;45374;52.746;6.304;2022-12-31T06:02:06;13.38;;;4.80;;
59555;SDS011;45374;52.746;6.304;2022-12-31T06:04:32;11.40;;;4.30;;
59555;SDS011;45374;52.746;6.304;2022-12-31T06:06:57;11.07;;;4.35;;
59555;SDS011;45374;52.746;6.304;2022-12-31T06:09:23;13.50;;;4.63;;
59555;SDS011;45374;52.746;6.304;2022-12-31T06:11:49;14.45;;;4.45;;
59555;SDS011;45374;52.746;6.304;2022-12-31T06:14:14;11.38;;;4.50;;
59555;SDS011;45374;52.746;6.304;2022-12-31T06:16:40;12.23;;;4.80;;
59555;SDS011;45374;52.746;6.304;2022-12-31T06:19:06;9.23;;;4.07;;
59555;SDS011;45374;52.746;6.304;2022-12-31T06:21:32;13.10;;;4.45;;
59555;SDS011;45374;52.746;6.304;2022-12-31T06:23:58;13.15;;;4.38;;
59555;SDS011;45374;52.746;6.304;2022-12-31T06:26:24;12.70;;;4.35;;
59555;SDS011;45374;52.746;6.304;2022-12-31T06:28:50;11.90;;;4.35;;
59555;SDS011;45374;52.746;6.304;2022-12-31T06:31:16;13.02;;;4.85;;
59555;SDS011;45374;52.746;6.304;2022-12-31T06:33:42;14.55;;;4.90;;
59555;SDS011;45374;52.746;6.304;2022-12-31T06:36:09;9.95;;;4.50;;
59555;SDS011;45374;52.746;6.304;2022-12-31T06:38:37;11.25;;;4.55;;
59555;SDS011;45374;52.746;6.304;2022-12-31T06:41:08;10.90;;;5.05;;
59555;SDS011;45374;52.746;6.304;2022-12-31T06:43:36;9.43;;;4.60;;
59555;SDS011;45374;52.746;6.304;2022-12-31T06:46:06;9.93;;;4.30;;
59555;SDS011;45374;52.746;6.304;2022-12-31T06:48:33;10.15;;;4.72;;
59555;SDS011;45374;52.746;6.304;2022-12-31T06:51:05;7.88;;;4.40;;
59555;SDS011;45374;52.746;6.304;2022-12-31T06:53:32;9.00;;;4.57;;
59555;SDS011;45374;52.746;6.304;2022-12-31T06:56:03;9.38;;;4.32;;
59555;SDS011;45374;52.746;6.304;2022-12-31T07:01:42;10.98;;;4.70;;
59555;SDS011;45374;52.746;6.304;2022-12-31T07:03:47;8.73;;;4.20;;
59555;SDS011;45374;52.746;6.304;2022-12-31T07:06:39;9.02;;;4.07;;
59555;SDS011;45374;52.746;6.304;2022-12-31T07:09:16;8.43;;;3.97;;
59555;SDS011;45374;52.746;6.304;2022-12-31T07:22:39;12.82;;;4.40;;
59555;SDS011;45374;52.746;6.304;2022-12-31T07:25:05;12.15;;;4.63;;
59555;SDS011;45374;52.746;6.304;2022-12-31T07:27:41;7.82;;;4.28;;
59555;SDS011;45374;52.746;6.304;2022-12-31T07:30:15;9.57;;;3.85;;
59555;SDS011;45374;52.746;6.304;2022-12-31T07:35:28;7.57;;;3.80;;
59555;SDS011;45374;52.746;6.304;2022-12-31T07:38:36;8.93;;;4.05;;
59555;SDS011;45374;52.746;6.304;2022-12-31T07:46:58;10.02;;;4.53;;
59555;SDS011;45374;52.746;6.304;2022-12-31T07:49:26;10.68;;;4.75;;
59555;SDS011;45374;52.746;6.304;2022-12-31T07:51:53;7.80;;;4.22;;
59555;SDS011;45374;52.746;6.304;2022-12-31T07:54:19;12.40;;;5.00;;
59555;SDS011;45374;52.746;6.304;2022-12-31T07:56:45;11.43;;;4.97;;
59555;SDS011;45374;52.746;6.304;2022-12-31T08:01:41;13.73;;;5.57;;
59555;SDS011;45374;52.746;6.304;2022-12-31T08:06:47;11.82;;;5.05;;
59555;SDS011;45374;52.746;6.304;2022-12-31T08:09:41;13.10;;;5.00;;
59555;SDS011;45374;52.746;6.304;2022-12-31T08:12:16;13.30;;;4.95;;
59555;SDS011;45374;52.746;6.304;2022-12-31T08:14:44;9.38;;;4.70;;
59555;SDS011;45374;52.746;6.304;2022-12-31T08:17:12;8.88;;;4.50;;
59555;SDS011;45374;52.746;6.304;2022-12-31T08:19:39;9.85;;;4.90;;
59555;SDS011;45374;52.746;6.304;2022-12-31T08:30:15;13.73;;;6.00;;
59555;SDS011;45374;52.746;6.304;2022-12-31T08:32:54;10.80;;;5.60;;
59555;SDS011;45374;52.746;6.304;2022-12-31T08:38:33;15.88;;;6.43;;
59555;SDS011;45374;52.746;6.304;2022-12-31T08:46:29;13.52;;;6.13;;
59555;SDS011;45374;52.746;6.304;2022-12-31T08:49:02;11.45;;;6.15;;
59555;SDS011;45374;52.746;6.304;2022-12-31T08:51:28;11.15;;;6.28;;
59555;SDS011;45374;52.746;6.304;2022-12-31T08:53:53;12.52;;;6.03;;
59555;SDS011;45374;52.746;6.304;2022-12-31T09:04:44;10.27;;;5.60;;
59555;SDS011;45374;52.746;6.304;2022-12-31T09:07:33;10.52;;;4.65;;
59555;SDS011;45374;52.746;6.304;2022-12-31T09:12:33;6.10;;;3.58;;
59555;SDS011;45374;52.746;6.304;2022-12-31T09:15:11;8.45;;;3.70;;
59555;SDS011;45374;52.746;6.304;2022-12-31T09:17:55;7.07;;;3.50;;
59555;SDS011;45374;52.746;6.304;2022-12-31T09:20:28;6.55;;;2.88;;
59555;SDS011;45374;52.746;6.304;2022-12-31T09:22:58;8.63;;;3.22;;
59555;SDS011;45374;52.746;6.304;2022-12-31T09:25:25;4.72;;;2.70;;
59555;SDS011;45374;52.746;6.304;2022-12-31T09:30:27;5.00;;;2.10;;
59555;SDS011;45374;52.746;6.304;2022-12-31T09:32:59;3.83;;;2.42;;
59555;SDS011;45374;52.746;6.304;2022-12-31T09:35:40;4.88;;;2.05;;
59555;SDS011;45374;52.746;6.304;2022-12-31T09:38:34;4.00;;;1.80;;
59555;SDS011;45374;52.746;6.304;2022-12-31T09:44:30;5.47;;;1.90;;
59555;SDS011;45374;52.746;6.304;2022-12-31T09:55:29;5.47;;;1.55;;
59555;SDS011;45374;52.746;6.304;2022-12-31T10:00:30;6.03;;;1.67;;
59555;SDS011;45374;52.746;6.304;2022-12-31T10:06:24;5.50;;;1.40;;
59555;SDS011;45374;52.746;6.304;2022-12-31T10:28:24;6.18;;;2.38;;
59555;SDS011;45374;52.746;6.304;2022-12-31T10:42:50;5.47;;;2.72;;
59555;SDS011;45374;52.746;6.304;2022-12-31T11:02:32;17.65;;;4.85;;
59555;SDS011;45374;52.746;6.304;2022-12-31T11:17:15;14.68;;;5.38;;
59555;SDS011;45374;52.746;6.304;2022-12-31T11:19:56;10.95;;;4.18;;
59555;SDS011;45374;52.746;6.304;2022-12-31T11:30:21;11.45;;;5.60;;
59555;SDS011;45374;52.746;6.304;2022-12-31T11:36:23;7.28;;;4.68;;
59555;SDS011;45374;52.746;6.304;2022-12-31T11:38:33;10.68;;;4.55;;
59555;SDS011;45374;52.746;6.304;2022-12-31T11:44:17;9.50;;;3.78;;
59555;SDS011;45374;52.746;6.304;2022-12-31T11:55:22;12.27;;;3.80;;
59555;SDS011;45374;52.746;6.304;2022-12-31T11:58:00;9.07;;;4.40;;
59555;SDS011;45374;52.746;6.304;2022-12-31T12:00:35;8.63;;;4.22;;
59555;SDS011;45374;52.746;6.304;2022-12-31T12:03:03;6.68;;;4.20;;
59555;SDS011;45374;52.746;6.304;2022-12-31T12:05:30;9.70;;;4.15;;
59555;SDS011;45374;52.746;6.304;2022-12-31T12:07:57;10.05;;;3.80;;
59555;SDS011;45374;52.746;6.304;2022-12-31T12:10:24;7.35;;;3.20;;
59555;SDS011;45374;52.746;6.304;2022-12-31T12:12:55;6.25;;;2.78;;
59555;SDS011;45374;52.746;6.304;2022-12-31T12:15:23;6.30;;;2.50;;
59555;SDS011;45374;52.746;6.304;2022-12-31T12:17:58;6.20;;;2.85;;
59555;SDS011;45374;52.746;6.304;2022-12-31T12:20:33;7.40;;;2.90;;
59555;SDS011;45374;52.746;6.304;2022-12-31T12:23:11;6.45;;;2.88;;
59555;SDS011;45374;52.746;6.304;2022-12-31T12:25:40;6.22;;;2.80;;
59555;SDS011;45374;52.746;6.304;2022-12-31T12:30:43;8.77;;;4.00;;
59555;SDS011;45374;52.746;6.304;2022-12-31T12:33:14;7.93;;;3.78;;
59555;SDS011;45374;52.746;6.304;2022-12-31T12:35:42;5.13;;;4.00;;
59555;SDS011;45374;52.746;6.304;2022-12-31T12:38:12;7.32;;;4.80;;
59555;SDS011;45374;52.746;6.304;2022-12-31T12:40:38;12.00;;;4.60;;
59555;SDS011;45374;52.746;6.304;2022-12-31T12:43:04;6.35;;;3.70;;
59555;SDS011;45374;52.746;6.304;2022-12-31T12:45:39;7.18;;;3.90;;
59555;SDS011;45374;52.746;6.304;2022-12-31T12:48:13;7.90;;;3.72;;
59555;SDS011;45374;52.746;6.304;2022-12-31T12:50:49;7.57;;;3.60;;
59555;SDS011;45374;52.746;6.304;2022-12-31T12:53:30;7.07;;;3.95;;
59555;SDS011;45374;52.746;6.304;2022-12-31T13:01:46;6.35;;;2.97;;
59555;SDS011;45374;52.746;6.304;2022-12-31T13:04:26;6.40;;;2.83;;
59555;SDS011;45374;52.746;6.304;2022-12-31T13:07:00;11.00;;;5.47;;
59555;SDS011;45374;52.746;6.304;2022-12-31T13:09:32;26.63;;;14.87;;
59555;SDS011;45374;52.746;6.304;2022-12-31T13:20:44;37.40;;;17.40;;
59555;SDS011;45374;52.746;6.304;2022-12-31T13:28:29;22.45;;;11.27;;
59555;SDS011;45374;52.746;6.304;2022-12-31T13:31:04;35.42;;;18.10;;
59555;SDS011;45374;52.746;6.304;2022-12-31T13:33:38;35.38;;;20.38;;
59555;SDS011;45374;52.746;6.304;2022-12-31T13:36:08;42.97;;;21.63;;
59555;SDS011;45374;52.746;6.304;2022-12-31T13:38:39;12.50;;;5.30;;
59555;SDS011;45374;52.746;6.304;2022-12-31T13:41:17;13.38;;;4.60;;
59555;SDS011;45374;52.746;6.304;2022-12-31T13:49:56;16.90;;;5.03;;
59555;SDS011;45374;52.746;6.304;2022-12-31T13:52:23;7.13;;;3.20;;
59555;SDS011;45374;52.746;6.304;2022-12-31T14:03:32;5.03;;;2.05;;
59555;SDS011;45374;52.746;6.304;2022-12-31T14:06:08;6.68;;;2.85;;
59555;SDS011;45374;52.746;6.304;2022-12-31T14:08:44;5.68;;;2.13;;
59555;SDS011;45374;52.746;6.304;2022-12-31T14:11:17;5.18;;;2.25;;
59555;SDS011;45374;52.746;6.304;2022-12-31T14:13:50;7.82;;;3.13;;
59555;SDS011;45374;52.746;6.304;2022-12-31T14:19:05;13.00;;;5.53;;
59555;SDS011;45374;52.746;6.304;2022-12-31T14:25:15;16.67;;;5.80;;
59555;SDS011;45374;52.746;6.304;2022-12-31T14:27:46;17.63;;;7.68;;
59555;SDS011;45374;52.746;6.304;2022-12-31T14:30:14;22.80;;;9.23;;
59555;SDS011;45374;52.746;6.304;2022-12-31T14:33:00;25.45;;;10.93;;
59555;SDS011;45374;52.746;6.304;2022-12-31T14:35:33;21.75;;;10.95;;
59555;SDS011;45374;52.746;6.304;2022-12-31T14:49:05;22.65;;;9.85;;
59555;SDS011;45374;52.746;6.304;2022-12-31T14:51:54;24.48;;;11.13;;
59555;SDS011;45374;52.746;6.304;2022-12-31T14:54:34;23.05;;;11.20;;
59555;SDS011;45374;52.746;6.304;2022-12-31T14:57:20;23.13;;;11.05;;
59555;SDS011;45374;52.746;6.304;2022-12-31T14:59:59;25.10;;;11.18;;
59555;SDS011;45374;52.746;6.304;2022-12-31T15:02:30;25.15;;;10.60;;
59555;SDS011;45374;52.746;6.304;2022-12-31T15:05:14;17.92;;;10.75;;
59555;SDS011;45374;52.746;6.304;2022-12-31T15:08:31;19.15;;;10.20;;
59555;SDS011;45374;52.746;6.304;2022-12-31T15:13:26;24.40;;;10.07;;
59555;SDS011;45374;52.746;6.304;2022-12-31T15:19:00;21.08;;;10.18;;
59555;SDS011;45374;52.746;6.304;2022-12-31T15:21:31;21.38;;;9.50;;
59555;SDS011;45374;52.746;6.304;2022-12-31T15:24:12;16.85;;;8.07;;
59555;SDS011;45374;52.746;6.304;2022-12-31T15:26:47;17.13;;;7.78;;
59555;SDS011;45374;52.746;6.304;2022-12-31T15:29:23;24.92;;;11.10;;
59555;SDS011;45374;52.746;6.304;2022-12-31T15:31:51;22.52;;;8.35;;
59555;SDS011;45374;52.746;6.304;2022-12-31T15:34:22;20.45;;;8.85;;
59555;SDS011;45374;52.746;6.304;2022-12-31T15:37:03;21.13;;;8.80;;
59555;SDS011;45374;52.746;6.304;2022-12-31T15:41:56;26.00;;;11.75;;
59555;SDS011;45374;52.746;6.304;2022-12-31T15:44:45;22.67;;;10.68;;
59555;SDS011;45374;52.746;6.304;2022-12-31T15:49:54;22.23;;;9.50;;
59555;SDS011;45374;52.746;6.304;2022-12-31T15:52:21;24.10;;;9.27;;
59555;SDS011;45374;52.746;6.304;2022-12-31T15:54:53;21.05;;;8.65;;
59555;SDS011;45374;52.746;6.304;2022-12-31T15:57:30;21.30;;;9.48;;
59555;SDS011;45374;52.746;6.304;2022-12-31T16:00:04;22.27;;;8.85;;
59555;SDS011;45374;52.746;6.304;2022-12-31T16:02:40;22.20;;;8.98;;
59555;SDS011;45374;52.746;6.304;2022-12-31T16:05:15;19.63;;;9.25;;
59555;SDS011;45374;52.746;6.304;2022-12-31T16:07:57;22.65;;;9.30;;
59555;SDS011;45374;52.746;6.304;2022-12-31T16:10:29;28.77;;;9.60;;
59555;SDS011;45374;52.746;6.304;2022-12-31T16:15:23;24.63;;;8.98;;
59555;SDS011;45374;52.746;6.304;2022-12-31T16:18:00;27.08;;;9.38;;
59555;SDS011;45374;52.746;6.304;2022-12-31T16:23:22;23.40;;;9.50;;
59555;SDS011;45374;52.746;6.304;2022-12-31T16:25:51;20.38;;;6.95;;
59555;SDS011;45374;52.746;6.304;2022-12-31T16:28:21;22.25;;;6.50;;
59555;SDS011;45374;52.746;6.304;2022-12-31T16:31:00;20.67;;;7.60;;
59555;SDS011;45374;52.746;6.304;2022-12-31T16:33:28;27.48;;;10.77;;
59555;SDS011;45374;52.746;6.304;2022-12-31T16:35:56;27.80;;;13.68;;
59555;SDS011;45374;52.746;6.304;2022-12-31T16:38:33;40.80;;;14.85;;
59555;SDS011;45374;52.746;6.304;2022-12-31T16:43:40;35.50;;;16.45;;
59555;SDS011;45374;52.746;6.304;2022-12-31T16:48:32;47.28;;;22.25;;
59555;SDS011;45374;52.746;6.304;2022-12-31T16:50:59;56.55;;;23.20;;
59555;SDS011;45374;52.746;6.304;2022-12-31T16:53:26;48.97;;;20.92;;
59555;SDS011;45374;52.746;6.304;2022-12-31T16:58:33;49.63;;;22.38;;
59555;SDS011;45374;52.746;6.304;2022-12-31T17:01:09;63.83;;;27.42;;
59555;SDS011;45374;52.746;6.304;2022-12-31T17:03:57;56.08;;;25.83;;
59555;SDS011;45374;52.746;6.304;2022-12-31T17:06:24;49.60;;;22.98;;
59555;SDS011;45374;52.746;6.304;2022-12-31T17:11:23;47.55;;;17.83;;
59555;SDS011;45374;52.746;6.304;2022-12-31T17:16:30;43.45;;;17.08;;
59555;SDS011;45374;52.746;6.304;2022-12-31T17:18:57;43.15;;;17.50;;
59555;SDS011;45374;52.746;6.304;2022-12-31T17:21:27;42.35;;;15.93;;
59555;SDS011;45374;52.746;6.304;2022-12-31T17:24:02;44.33;;;17.33;;
59555;SDS011;45374;52.746;6.304;2022-12-31T17:26:31;51.75;;;18.15;;
59555;SDS011;45374;52.746;6.304;2022-12-31T17:28:58;48.58;;;18.73;;
59555;SDS011;45374;52.746;6.304;2022-12-31T17:31:27;46.00;;;18.75;;
59555;SDS011;45374;52.746;6.304;2022-12-31T17:34:04;45.97;;;18.15;;
59555;SDS011;45374;52.746;6.304;2022-12-31T17:36:30;41.45;;;16.75;;
59555;SDS011;45374;52.746;6.304;2022-12-31T17:39:04;34.03;;;15.95;;
59555;SDS011;45374;52.746;6.304;2022-12-31T17:41:43;41.80;;;14.55;;
59555;SDS011;45374;52.746;6.304;2022-12-31T17:44:13;37.53;;;15.40;;
59555;SDS011;45374;52.746;6.304;2022-12-31T17:46:42;41.17;;;16.40;;
59555;SDS011;45374;52.746;6.304;2022-12-31T17:49:08;43.25;;;16.45;;
59555;SDS011;45374;52.746;6.304;2022-12-31T17:51:38;38.53;;;15.55;;
59555;SDS011;45374;52.746;6.304;2022-12-31T17:54:14;37.50;;;15.38;;
59555;SDS011;45374;52.746;6.304;2022-12-31T17:56:40;41.00;;;15.43;;
59555;SDS011;45374;52.746;6.304;2022-12-31T17:59:07;42.20;;;16.35;;
59555;SDS011;45374;52.746;6.304;2022-12-31T18:01:32;36.72;;;15.70;;
59555;SDS011;45374;52.746;6.304;2022-12-31T18:03:58;35.97;;;15.68;;
59555;SDS011;45374;52.746;6.304;2022-12-31T18:06:24;38.55;;;16.15;;
59555;SDS011;45374;52.746;6.304;2022-12-31T18:08:51;43.88;;;17.40;;
59555;SDS011;45374;52.746;6.304;2022-12-31T18:11:17;42.03;;;17.10;;
59555;SDS011;45374;52.746;6.304;2022-12-31T18:13:46;44.08;;;17.15;;
59555;SDS011;45374;52.746;6.304;2022-12-31T18:16:12;41.22;;;16.42;;
59555;SDS011;45374;52.746;6.304;2022-12-31T18:18:38;38.47;;;16.27;;
59555;SDS011;45374;52.746;6.304;2022-12-31T18:21:06;45.72;;;17.05;;
59555;SDS011;45374;52.746;6.304;2022-12-31T18:23:42;40.50;;;16.55;;
59555;SDS011;45374;52.746;6.304;2022-12-31T18:26:16;38.50;;;15.75;;
59555;SDS011;45374;52.746;6.304;2022-12-31T18:28:46;38.38;;;15.20;;
59555;SDS011;45374;52.746;6.304;2022-12-31T18:31:18;39.80;;;16.42;;
59555;SDS011;45374;52.746;6.304;2022-12-31T18:33:48;37.63;;;15.80;;
59555;SDS011;45374;52.746;6.304;2022-12-31T18:36:16;33.17;;;14.35;;
59555;SDS011;45374;52.746;6.304;2022-12-31T18:38:43;31.20;;;12.32;;
59555;SDS011;45374;52.746;6.304;2022-12-31T18:41:14;39.97;;;14.02;;
59555;SDS011;45374;52.746;6.304;2022-12-31T18:43:42;31.25;;;12.75;;
59555;SDS011;45374;52.746;6.304;2022-12-31T18:46:12;28.40;;;12.52;;
59555;SDS011;45374;52.746;6.304;2022-12-31T18:48:39;30.45;;;12.88;;
59555;SDS011;45374;52.746;6.304;2022-12-31T18:51:06;33.08;;;13.68;;
59555;SDS011;45374;52.746;6.304;2022-12-31T18:53:39;35.65;;;14.02;;
59555;SDS011;45374;52.746;6.304;2022-12-31T18:56:04;36.97;;;15.25;;
59555;SDS011;45374;52.746;6.304;2022-12-31T18:58:30;32.33;;;14.35;;
59555;SDS011;45374;52.746;6.304;2022-12-31T19:00:56;38.58;;;14.55;;
59555;SDS011;45374;52.746;6.304;2022-12-31T19:03:22;30.88;;;14.10;;
59555;SDS011;45374;52.746;6.304;2022-12-31T19:05:51;29.42;;;12.48;;
59555;SDS011;45374;52.746;6.304;2022-12-31T19:08:17;33.15;;;14.00;;
59555;SDS011;45374;52.746;6.304;2022-12-31T19:10:44;25.52;;;12.50;;
59555;SDS011;45374;52.746;6.304;2022-12-31T19:13:11;32.35;;;12.80;;
59555;SDS011;45374;52.746;6.304;2022-12-31T19:15:48;28.88;;;12.68;;
59555;SDS011;45374;52.746;6.304;2022-12-31T19:18:15;35.35;;;12.93;;
59555;SDS011;45374;52.746;6.304;2022-12-31T19:20:41;29.67;;;12.05;;